CYSY

Sachs Harbour (David Nasogaluak Jr. Saaryuaq) Airport

Sachs Harbour, Northwest Territories, Canada
METAR CYSY 221800Z 12013KT 10SM IC DRSN FEW003 FEW035 FEW065 FEW240 M21/M25 A3023 RMK ST1SC1SC1CC1 SC TR CC TR BCFG LAST OBS/NEXT 231300Z SLP253
Observed Flight Rules
Apr-22 @ 18:00 UTC (19 minutes ago) Visual Flight Rules
Wind Visibility Clouds Conditions
120° at 13 knots 10 miles
  • Few at 300' AGL
  • Few at 3,500' AGL
  • Few at 6,500' AGL
  • Few at 24,000' AGL
  • Ice crystals
  • Low drifting
  • Snow
Temperatures Readings
Current -21°C / -6°F
Dewpoint -25°C / -13°F
Humidity 70%
Altimeter 30.23" Hg
Pressure 1025.3 hPa
Elevation 86
METAR CYSY 221800Z 12013KT 10SM IC DRSN FEW003 FEW035 FEW065 FEW240 M21/M25 A3023 RMK ST1SC1SC1CC1 SC TR CC TR BCFG LAST OBS/NEXT 231300Z SLP253
Observed Flight Rules
Apr-22 @ 18:00 UTC
(19 minutes ago)
VFR
Wind Visibility
120° at 13 knots 10 miles
Clouds
  • Few at 300' AGL
  • Few at 3,500' AGL
  • Few at 6,500' AGL
  • Few at 24,000' AGL
Conditions
  • Ice crystals
  • Low drifting
  • Snow
Temperature Dewpoint
-21°C / -6°F -25°C / -13°F
Humidity Altimeter Pressure
70% 30.23" Hg 1025.3 hPa